Portada
Imágenes satélite Pronóstico 15 díasClimaPredicción Marítima Ciclones Rayo AeropuertosFAQ Noticias Acerca
El tiempo : Europa África América del Norte América del Sur Asia Australia-Oceanía Otros
Idiomas Contacto

Vitória, Espírito Santo, Brasil

latitud: 20-16S, longitud: 040-17W, altitud: 4 m


METAR: SBVT 251800Z 05017KT CAVOK 28/17 Q1012
TAF: SBVT 251600Z 2518/2618 05011KT 9999 SCT025 TN19/2609Z TX28/2615Z BECMG 2600/2602 34003KT BECMG 2611/2613 15010KT RMK PEA

Hora: 16:55 (18:55 UTC)

Observación

El informe se hizo hace 55 minutos, a las 18:00 UTC
Viento 17 kt del noreste
Temperatura 28°C
Humedad 51%
Presión 1012 hPa
Visibilidad 10 km o más
sin nubes por debajo de 1500 m y sin presencia de cumulonimbus.

Cambiar las unidades

Pronóstico

El informe se hizo hace 2 horas y 55 minutos, a las 16:00 UTC
Pronóstico válido del 25 a las 18 UTC al 26 a las 18 UTC
Viento 11 kt del noreste
Visibilidad 10 km o más
Nubes dispersas a una altura de 2500 ft
Evolucionando progresivamente
del 26 a las 00 UTC al 26 a las 02 UTC
Viento 3 kt del norte-noroeste
Evolucionando progresivamente
del 26 a las 11 UTC al 26 a las 13 UTC
Viento 10 kt del sur-sureste
La información que se ofrece en estas páginas está sujeta a una cláusula de exención de responsabilidad
El tiempo : Europa África América del Norte América del Sur Asia Australia-Oceanía Otros
Imágenes satélite Pronóstico 15 díasClimaPredicción Marítima Ciclones Rayo AeropuertosFAQ Idiomas Contacto Noticias Acerca